createdAt,value
2019-05-10T00:00:50.049Z,99.99
2019-05-10T00:01:50.052Z,99.99
2019-05-10T00:02:50.000Z,99.99
2019-05-10T00:03:49.973Z,99.99
2019-05-10T00:04:49.947Z,99.99
2019-05-10T00:05:49.928Z,99.99
2019-05-10T00:06:49.895Z,99.99
2019-05-10T00:07:49.870Z,99.99
2019-05-10T00:08:49.845Z,99.99
2019-05-10T00:09:49.817Z,99.99
2019-05-10T00:10:49.791Z,99.99
2019-05-10T00:11:49.778Z,99.99
2019-05-10T00:12:49.738Z,99.99
2019-05-10T00:13:49.722Z,99.99
2019-05-10T00:14:49.687Z,99.99
2019-05-10T00:15:49.661Z,99.99
2019-05-10T00:16:49.637Z,99.99
2019-05-10T00:17:49.608Z,99.99
2019-05-10T00:18:49.589Z,99.99
2019-05-10T00:19:49.559Z,99.99
2019-05-10T00:20:49.531Z,99.99
2019-05-10T00:21:49.504Z,99.99
2019-05-10T00:22:49.478Z,99.99
2019-05-10T00:23:49.452Z,99.99
2019-05-10T00:25:02.950Z,99.99
2019-05-10T00:25:51.278Z,99.99
2019-05-10T00:26:49.423Z,99.99
2019-05-10T00:27:49.346Z,99.99
2019-05-10T00:28:49.320Z,99.99
2019-05-10T00:29:49.295Z,99.99
2019-05-10T00:30:49.272Z,99.99
2019-05-10T00:31:49.243Z,99.99
2019-05-10T00:32:49.221Z,99.99
2019-05-10T00:33:49.193Z,99.99
2019-05-10T00:34:49.165Z,99.99
2019-05-10T00:35:49.139Z,99.99
2019-05-10T00:36:49.112Z,99.99
2019-05-10T00:37:49.086Z,99.99
2019-05-10T00:38:49.060Z,99.99
2019-05-10T00:39:49.036Z,99.99
2019-05-10T00:40:49.007Z,99.99
2019-05-10T00:41:48.981Z,99.99
2019-05-10T00:42:48.968Z,99.99
2019-05-10T00:43:48.929Z,99.99
2019-05-10T00:44:48.903Z,99.99
2019-05-10T00:45:48.879Z,99.99
2019-05-10T00:46:48.861Z,99.99
2019-05-10T00:47:48.826Z,99.99
2019-05-10T00:48:48.797Z,99.99
2019-05-10T00:49:48.772Z,99.99
2019-05-10T00:50:48.749Z,99.99
2019-05-10T00:51:48.719Z,99.99
2019-05-10T00:52:48.695Z,99.99
2019-05-10T00:53:48.668Z,99.99
2019-05-10T00:54:48.647Z,99.99
2019-05-10T00:55:48.616Z,99.99
2019-05-10T00:56:48.591Z,99.99
2019-05-10T00:57:48.564Z,99.99
2019-05-10T00:58:48.539Z,99.99
2019-05-10T00:59:48.512Z,99.99
2019-05-10T01:00:48.486Z,99.99
2019-05-10T01:01:48.461Z,99.99
2019-05-10T01:02:48.435Z,99.99
2019-05-10T01:03:48.407Z,99.99
2019-05-10T01:04:48.380Z,99.99
2019-05-10T01:05:48.359Z,99.99
2019-05-10T01:06:48.330Z,99.99
2019-05-10T01:07:48.307Z,99.99
2019-05-10T01:08:48.277Z,99.99
2019-05-10T01:09:48.291Z,99.99
2019-05-10T01:10:48.226Z,99.99
2019-05-10T01:11:48.199Z,99.99
2019-05-10T01:12:48.172Z,99.99
2019-05-10T01:13:48.147Z,99.99
2019-05-10T01:14:48.121Z,99.99
2019-05-10T01:15:48.094Z,99.99
2019-05-10T01:16:48.069Z,99.99
2019-05-10T01:17:48.045Z,99.99
2019-05-10T01:18:48.018Z,99.99
2019-05-10T01:19:47.989Z,99.99
2019-05-10T01:20:47.963Z,99.99
2019-05-10T01:21:47.938Z,99.99
2019-05-10T01:22:47.912Z,99.99
2019-05-10T01:23:47.894Z,99.99
2019-05-10T01:24:47.859Z,99.99
2019-05-10T01:25:47.839Z,99.99
2019-05-10T01:26:47.821Z,99.99
2019-05-10T01:27:47.780Z,99.99
2019-05-10T01:28:47.755Z,99.99
2019-05-10T01:29:47.728Z,99.99
2019-05-10T01:30:47.702Z,99.99
2019-05-10T01:31:47.680Z,99.99
2019-05-10T01:32:47.650Z,99.99
2019-05-10T01:33:47.634Z,99.99
2019-05-10T01:34:47.599Z,99.99
2019-05-10T01:35:47.573Z,99.99
2019-05-10T01:36:47.606Z,99.99
2019-05-10T01:37:47.524Z,99.99
2019-05-10T01:38:47.494Z,99.99
2019-05-10T01:39:47.464Z,99.99
2019-05-10T01:40:47.439Z,99.99
2019-05-10T01:41:47.412Z,99.99
2019-05-10T01:42:47.393Z,99.99
2019-05-10T01:43:47.360Z,99.99
2019-05-10T01:44:47.334Z,99.99
2019-05-10T01:45:47.309Z,99.99
2019-05-10T01:46:47.284Z,99.99
2019-05-10T01:47:47.256Z,99.99
2019-05-10T01:48:47.230Z,99.99
2019-05-10T01:49:47.209Z,99.99
2019-05-10T01:50:47.179Z,99.99
2019-05-10T01:51:47.154Z,99.99
2019-05-10T01:52:47.126Z,99.99
2019-05-10T01:53:47.100Z,99.99
2019-05-10T01:54:47.077Z,99.99
2019-05-10T01:55:52.300Z,99.99
2019-05-10T01:56:47.021Z,99.99
2019-05-10T01:57:46.997Z,99.99
2019-05-10T01:58:46.970Z,99.99
2019-05-10T01:59:46.943Z,99.99
2019-05-10T02:00:46.920Z,99.99
2019-05-10T02:01:46.894Z,99.99
2019-05-10T02:02:46.869Z,99.99
2019-05-10T02:03:46.837Z,99.99
2019-05-10T02:04:46.812Z,99.99
2019-05-10T02:05:46.785Z,99.99
2019-05-10T02:06:46.759Z,99.99
2019-05-10T02:07:46.735Z,99.99
2019-05-10T02:08:46.710Z,99.99
2019-05-10T02:09:46.683Z,99.99
2019-05-10T02:10:46.658Z,99.99
2019-05-10T02:11:46.632Z,99.99
2019-05-10T02:12:46.603Z,99.99
2019-05-10T02:13:46.654Z,99.99
2019-05-10T02:14:46.554Z,99.99
2019-05-10T02:15:46.526Z,99.99
2019-05-10T02:16:46.563Z,99.99
2019-05-10T02:17:46.474Z,99.99
2019-05-10T02:18:46.449Z,99.99
2019-05-10T02:19:46.425Z,99.99
2019-05-10T02:20:46.397Z,99.99
2019-05-10T02:21:46.371Z,99.99
2019-05-10T02:22:46.345Z,99.99
2019-05-10T02:23:46.320Z,99.99
2019-05-10T02:24:46.306Z,99.99
2019-05-10T02:25:46.265Z,99.99
2019-05-10T02:26:46.243Z,99.99
2019-05-10T02:27:46.233Z,99.99
2019-05-10T02:28:46.191Z,99.99
2019-05-10T02:29:46.161Z,99.99
2019-05-10T02:30:46.135Z,99.99
2019-05-10T02:31:46.110Z,99.99
2019-05-10T02:32:46.083Z,99.99
2019-05-10T02:33:46.059Z,99.99
2019-05-10T02:34:46.032Z,99.99
2019-05-10T02:35:46.004Z,99.99
2019-05-10T02:36:45.979Z,99.99
2019-05-10T02:37:45.953Z,99.99
2019-05-10T02:38:45.928Z,99.99
2019-05-10T02:39:45.902Z,99.99
2019-05-10T02:40:45.874Z,99.99
2019-05-10T02:41:45.853Z,99.99
2019-05-10T02:42:45.822Z,99.99
2019-05-10T02:43:45.797Z,99.99
2019-05-10T02:44:45.769Z,99.99
2019-05-10T02:45:45.744Z,99.99
2019-05-10T02:46:45.717Z,99.99
2019-05-10T02:47:45.692Z,99.99
2019-05-10T02:48:45.667Z,99.99
2019-05-10T02:49:45.641Z,99.99
2019-05-10T02:50:45.613Z,99.99
2019-05-10T02:51:45.587Z,99.99
2019-05-10T02:52:45.559Z,99.99
2019-05-10T02:53:45.534Z,99.99
2019-05-10T02:54:45.508Z,99.99
2019-05-10T02:55:45.486Z,99.99
2019-05-10T02:56:45.455Z,99.99
2019-05-10T02:57:45.433Z,99.99
2019-05-10T02:58:45.412Z,99.99
2019-05-10T02:59:45.376Z,99.99
2019-05-10T03:00:45.351Z,99.99
2019-05-10T03:01:45.328Z,99.99
2019-05-10T03:02:45.297Z,99.99
2019-05-10T03:03:45.269Z,99.99
2019-05-10T03:04:45.245Z,99.99
2019-05-10T03:05:48.397Z,99.99
2019-05-10T03:06:45.204Z,99.99
2019-05-10T03:07:45.169Z,99.99
2019-05-10T03:08:45.140Z,99.99
2019-05-10T03:09:45.112Z,99.99
2019-05-10T03:10:45.085Z,99.99
2019-05-10T03:11:45.058Z,99.99
2019-05-10T03:12:45.033Z,99.99
2019-05-10T03:13:45.065Z,99.99
2019-05-10T03:14:44.994Z,99.99
2019-05-10T03:15:44.952Z,99.99
2019-05-10T03:16:44.932Z,99.99
2019-05-10T03:17:44.899Z,99.99
2019-05-10T03:18:44.912Z,99.99
2019-05-10T03:19:44.887Z,99.99
2019-05-10T03:20:44.821Z,99.99
2019-05-10T03:21:44.796Z,99.99
2019-05-10T03:22:44.778Z,99.99
2019-05-10T03:23:44.741Z,99.99
2019-05-10T03:24:44.717Z,99.99
2019-05-10T03:25:44.689Z,99.99
2019-05-10T03:26:50.925Z,99.99
2019-05-10T03:27:44.637Z,99.99
2019-05-10T03:28:44.609Z,99.99
2019-05-10T03:29:44.582Z,99.99
2019-05-10T03:30:44.622Z,99.99
2019-05-10T03:31:44.532Z,99.99
2019-05-10T03:32:44.510Z,99.99
2019-05-10T03:33:44.493Z,99.99
2019-05-10T03:34:44.453Z,99.99
2019-05-10T03:35:44.422Z,99.99
2019-05-10T03:36:44.398Z,99.99
2019-05-10T03:37:44.380Z,99.99
2019-05-10T03:38:44.343Z,99.99
2019-05-10T03:39:44.317Z,99.99
2019-05-10T03:40:44.302Z,99.99
2019-05-10T03:41:44.269Z,99.99
2019-05-10T03:42:44.239Z,99.99
2019-05-10T03:43:44.212Z,99.99
2019-05-10T03:44:44.188Z,99.99
2019-05-10T03:45:44.156Z,99.99
2019-05-10T03:46:44.133Z,99.99
2019-05-10T03:47:44.104Z,99.99
2019-05-10T03:48:44.081Z,99.99
2019-05-10T03:49:44.052Z,99.99
2019-05-10T03:50:44.026Z,99.99
2019-05-10T03:51:43.997Z,99.99
2019-05-10T03:52:43.971Z,99.99
2019-05-10T03:53:43.946Z,99.99
2019-05-10T03:54:43.921Z,99.99
2019-05-10T03:55:43.896Z,99.99
2019-05-10T03:56:43.864Z,99.99
2019-05-10T03:57:43.840Z,99.99
2019-05-10T03:58:43.813Z,99.99
2019-05-10T03:59:43.784Z,99.99
2019-05-10T04:00:43.758Z,99.99
2019-05-10T04:01:43.735Z,99.99
2019-05-10T04:02:43.706Z,99.99
2019-05-10T04:03:43.677Z,99.99
2019-05-10T04:04:43.652Z,99.99
2019-05-10T04:05:43.626Z,99.99
2019-05-10T04:06:43.614Z,99.99
2019-05-10T04:07:43.671Z,99.99
2019-05-10T04:08:43.548Z,99.99
2019-05-10T04:09:43.520Z,99.99
2019-05-10T04:10:43.493Z,99.99
2019-05-10T04:11:43.464Z,99.99
2019-05-10T04:12:43.440Z,99.99
2019-05-10T04:13:43.413Z,99.99
2019-05-10T04:14:43.386Z,99.99
2019-05-10T04:15:43.361Z,99.99
2019-05-10T04:16:43.332Z,99.99
2019-05-10T04:17:43.307Z,99.99
2019-05-10T04:18:43.281Z,99.99
2019-05-10T04:19:43.257Z,99.99
2019-05-10T04:20:43.226Z,99.99
2019-05-10T04:21:43.200Z,99.99
2019-05-10T04:22:43.176Z,99.99
2019-05-10T04:23:43.150Z,99.99
2019-05-10T04:24:43.122Z,99.99
2019-05-10T04:25:43.093Z,99.99
2019-05-10T04:26:43.118Z,99.99
2019-05-10T04:27:43.040Z,99.99
2019-05-10T04:28:43.014Z,99.99
2019-05-10T04:29:42.991Z,99.99
2019-05-10T04:30:42.960Z,99.99
2019-05-10T04:31:42.933Z,99.99
2019-05-10T04:32:42.907Z,99.99
2019-05-10T04:33:42.897Z,99.99
2019-05-10T04:34:42.853Z,99.99
2019-05-10T04:35:42.825Z,99.99
2019-05-10T04:36:42.806Z,99.99
2019-05-10T04:37:42.778Z,99.99
2019-05-10T04:38:42.747Z,99.99
2019-05-10T04:39:42.721Z,99.99
2019-05-10T04:40:42.693Z,99.99
2019-05-10T04:41:42.719Z,99.99
2019-05-10T04:42:42.641Z,99.99
2019-05-10T04:43:42.618Z,99.99
2019-05-10T04:44:42.587Z,99.99
2019-05-10T04:45:42.566Z,99.99
2019-05-10T04:46:42.569Z,99.99
2019-05-10T04:47:42.509Z,99.99
2019-05-10T04:48:42.482Z,99.99
2019-05-10T04:49:42.457Z,99.99
2019-05-10T04:50:42.493Z,99.99
2019-05-10T04:51:42.404Z,99.99
2019-05-10T04:52:42.379Z,99.99
2019-05-10T04:53:42.360Z,99.99
2019-05-10T04:54:42.326Z,99.99
2019-05-10T04:55:42.304Z,99.99
2019-05-10T04:56:42.274Z,99.99
2019-05-10T04:57:50.495Z,99.99
2019-05-10T04:58:42.222Z,99.99
2019-05-10T04:59:42.197Z,99.99
2019-05-10T05:00:42.171Z,99.99
2019-05-10T05:01:42.144Z,99.99
2019-05-10T05:02:42.124Z,99.99
2019-05-10T05:03:42.096Z,99.99
2019-05-10T05:04:42.069Z,99.99
2019-05-10T05:05:42.037Z,99.99
2019-05-10T05:06:42.012Z,99.99
2019-05-10T05:07:41.985Z,99.99
2019-05-10T05:08:41.960Z,99.99
2019-05-10T05:09:41.942Z,99.99
2019-05-10T05:10:41.906Z,99.99
2019-05-10T05:11:41.880Z,99.99
2019-05-10T05:12:41.853Z,99.99
2019-05-10T05:13:41.828Z,99.99
2019-05-10T05:14:41.802Z,99.99
2019-05-10T05:15:41.777Z,99.99
2019-05-10T05:16:41.750Z,99.99
2019-05-10T05:17:41.725Z,99.99
2019-05-10T05:18:41.699Z,99.99
2019-05-10T05:19:41.677Z,99.99
2019-05-10T05:20:41.652Z,99.99
2019-05-10T05:21:41.624Z,99.99
2019-05-10T05:22:41.598Z,99.99
2019-05-10T05:23:41.575Z,99.99
2019-05-10T05:24:41.565Z,99.99
2019-05-10T05:25:41.859Z,99.99
2019-05-10T05:26:41.502Z,99.99
2019-05-10T05:27:41.477Z,99.99
2019-05-10T05:28:41.454Z,99.99
2019-05-10T05:29:41.433Z,99.99
2019-05-10T05:30:41.408Z,99.99
2019-05-10T05:31:41.385Z,99.99
2019-05-10T05:32:44.624Z,99.99
2019-05-10T05:33:41.340Z,99.99
2019-05-10T05:34:41.315Z,99.99
2019-05-10T05:35:41.295Z,99.99
2019-05-10T05:36:41.271Z,99.99
2019-05-10T05:37:41.248Z,99.99
2019-05-10T05:38:47.076Z,99.99
2019-05-10T05:39:41.201Z,99.99
2019-05-10T05:40:41.187Z,99.99
2019-05-10T05:41:49.256Z,99.99
2019-05-10T05:42:41.135Z,99.99
2019-05-10T05:43:45.875Z,99.99
2019-05-10T05:44:41.089Z,99.99
2019-05-10T05:45:41.068Z,99.99
2019-05-10T05:46:41.085Z,99.99
2019-05-10T05:47:42.145Z,99.99
2019-05-10T05:48:41.001Z,99.99
2019-05-10T05:49:40.978Z,99.99
2019-05-10T05:50:40.959Z,99.99
2019-05-10T05:51:40.937Z,99.99
2019-05-10T05:52:40.922Z,99.99
2019-05-10T05:53:42.439Z,99.99
2019-05-10T05:54:40.873Z,97.61
2019-05-10T05:55:40.856Z,97.86
2019-05-10T05:56:44.552Z,94.16
2019-05-10T05:57:40.817Z,94.02
2019-05-10T05:58:44.830Z,96.85
2019-05-10T05:59:40.770Z,99.01
2019-05-10T06:00:44.823Z,99.20
2019-05-10T06:01:40.729Z,97.38
2019-05-10T06:02:44.953Z,99.15
2019-05-10T06:03:40.693Z,99.99
2019-05-10T06:04:45.918Z,99.99
2019-05-10T06:05:40.652Z,99.99
2019-05-10T06:06:40.630Z,99.99
2019-05-10T06:07:40.611Z,99.99
2019-05-10T06:08:40.589Z,99.99
2019-05-10T06:09:40.569Z,99.99
2019-05-10T06:10:43.805Z,99.99
2019-05-10T06:11:40.524Z,99.99
2019-05-10T06:12:44.545Z,99.99
2019-05-10T06:13:40.487Z,99.99
2019-05-10T06:14:43.008Z,99.99
2019-05-10T06:15:40.441Z,99.99
2019-05-10T06:16:45.160Z,99.99
2019-05-10T06:17:40.412Z,99.99
2019-05-10T06:18:41.674Z,99.99
2019-05-10T06:19:40.354Z,99.99
2019-05-10T06:20:44.699Z,99.99
2019-05-10T06:21:40.310Z,99.99
2019-05-10T06:22:43.816Z,99.99
2019-05-10T06:23:40.266Z,99.99
2019-05-10T06:24:40.242Z,99.99
2019-05-10T06:25:42.701Z,99.99
2019-05-10T06:26:40.198Z,99.99
2019-05-10T06:27:43.177Z,99.99
2019-05-10T06:28:59.281Z,99.99
2019-05-10T06:29:43.046Z,99.99
2019-05-10T06:30:40.108Z,99.99
2019-05-10T06:31:40.086Z,99.99
2019-05-10T06:32:40.067Z,99.99
2019-05-10T06:33:44.897Z,99.99
2019-05-10T06:34:40.304Z,99.99
2019-05-10T06:35:39.993Z,99.99
2019-05-10T06:36:39.971Z,99.99
2019-05-10T06:37:39.949Z,99.99
2019-05-10T06:38:39.934Z,99.99
2019-05-10T06:39:39.903Z,99.99
2019-05-10T06:40:46.762Z,99.99
2019-05-10T06:41:39.873Z,99.99
2019-05-10T06:42:39.835Z,99.99
2019-05-10T06:43:39.810Z,99.99
2019-05-10T06:44:39.789Z,99.99
2019-05-10T06:45:39.770Z,99.99
2019-05-10T06:46:39.745Z,99.99
2019-05-10T06:47:42.147Z,99.99
2019-05-10T06:48:39.701Z,99.99
2019-05-10T06:49:40.997Z,99.99
2019-05-10T06:50:39.655Z,99.99
2019-05-10T06:51:42.938Z,99.99
2019-05-10T06:52:39.612Z,99.99
2019-05-10T06:53:42.175Z,99.99
2019-05-10T06:54:39.686Z,99.99
2019-05-10T06:55:39.541Z,99.99
2019-05-10T06:56:39.519Z,99.99
2019-05-10T06:57:39.496Z,99.99
2019-05-10T06:58:39.474Z,99.99
2019-05-10T06:59:39.451Z,99.99
2019-05-10T07:00:44.704Z,99.99
2019-05-10T07:01:45.767Z,99.99
2019-05-10T07:02:39.384Z,99.99
2019-05-10T07:03:39.359Z,99.99
2019-05-10T07:04:41.177Z,99.99
2019-05-10T07:05:39.314Z,99.99
2019-05-10T07:06:39.292Z,99.99
2019-05-10T07:07:44.458Z,99.99
2019-05-10T07:08:44.278Z,99.99
2019-05-10T07:10:01.373Z,99.99
2019-05-10T07:10:39.198Z,99.99
2019-05-10T07:11:39.175Z,99.99
2019-05-10T07:12:39.270Z,99.99
2019-05-10T07:13:40.483Z,99.99
2019-05-10T07:14:45.617Z,99.99
2019-05-10T07:15:42.619Z,99.99
2019-05-10T07:16:39.059Z,99.99
2019-05-10T07:17:45.654Z,99.99
2019-05-10T07:18:39.013Z,99.99
2019-05-10T07:19:41.998Z,99.99
2019-05-10T07:20:38.965Z,99.99
2019-05-10T07:21:44.223Z,99.99
2019-05-10T07:22:38.919Z,99.99
2019-05-10T07:23:44.251Z,99.99
2019-05-10T07:24:38.871Z,99.99
2019-05-10T07:25:43.629Z,99.99
2019-05-10T07:26:38.824Z,99.99
2019-05-10T07:27:38.967Z,99.99
2019-05-10T07:28:38.780Z,99.99
2019-05-10T07:29:43.287Z,99.99
2019-05-10T07:30:41.369Z,99.99
2019-05-10T07:31:38.706Z,99.99
2019-05-10T07:32:38.691Z,99.99
2019-05-10T07:33:40.158Z,99.99
2019-05-10T07:34:38.632Z,99.99
2019-05-10T07:35:38.904Z,99.99
2019-05-10T07:36:38.604Z,99.99
2019-05-10T07:37:38.582Z,99.99
2019-05-10T07:38:38.537Z,99.99
2019-05-10T07:39:38.512Z,99.99
2019-05-10T07:40:38.489Z,99.99
2019-05-10T07:41:38.482Z,99.99
2019-05-10T07:42:39.831Z,99.99
2019-05-10T07:43:38.433Z,99.99
2019-05-10T07:44:41.636Z,99.99
2019-05-10T07:45:38.367Z,99.99
2019-05-10T07:46:40.186Z,99.99
2019-05-10T07:47:38.317Z,99.99
2019-05-10T07:48:41.310Z,99.99
2019-05-10T07:49:38.269Z,99.99
2019-05-10T07:50:42.206Z,99.99
2019-05-10T07:51:38.220Z,99.99
2019-05-10T07:52:43.625Z,99.99
2019-05-10T07:53:38.172Z,99.99
2019-05-10T07:54:45.475Z,99.99
2019-05-10T07:55:38.135Z,99.99
2019-05-10T07:56:39.115Z,99.99
2019-05-10T07:57:38.075Z,99.99
2019-05-10T07:58:43.051Z,99.99
2019-05-10T07:59:50.276Z,99.99
2019-05-10T08:00:44.465Z,99.99
2019-05-10T08:01:37.978Z,99.99
2019-05-10T08:02:37.965Z,99.99
2019-05-10T08:03:44.182Z,99.99
2019-05-10T08:04:38.511Z,99.99
2019-05-10T08:05:39.119Z,99.99
2019-05-10T08:06:43.458Z,99.99
2019-05-10T08:07:38.780Z,99.99
2019-05-10T08:08:39.116Z,99.99
2019-05-10T08:09:44.747Z,99.99
2019-05-10T08:10:39.385Z,99.99
2019-05-10T08:11:39.110Z,99.99
2019-05-10T08:12:41.325Z,99.99
2019-05-10T08:13:39.369Z,99.99
2019-05-10T08:14:39.392Z,99.99
2019-05-10T08:15:38.425Z,99.99
2019-05-10T08:16:38.727Z,99.99
2019-05-10T08:17:41.072Z,99.99
2019-05-10T08:18:41.972Z,99.99
2019-05-10T08:19:39.043Z,99.99
2019-05-10T08:20:49.466Z,99.99
2019-05-10T08:21:37.500Z,99.99
2019-05-10T08:22:41.475Z,99.99
2019-05-10T08:23:37.454Z,99.99
2019-05-10T08:24:37.428Z,99.99
2019-05-10T08:25:43.811Z,99.99
2019-05-10T08:26:37.383Z,99.99
2019-05-10T08:27:44.017Z,99.99
2019-05-10T08:28:39.832Z,99.99
2019-05-10T08:29:37.333Z,99.99
2019-05-10T08:30:42.489Z,99.99
2019-05-10T08:31:40.672Z,99.99
2019-05-10T08:32:37.237Z,99.99
2019-05-10T08:33:37.214Z,99.99
2019-05-10T08:34:39.428Z,99.99
2019-05-10T08:35:38.858Z,99.99
2019-05-10T08:36:42.249Z,99.99
2019-05-10T08:37:38.000Z,99.99
2019-05-10T08:38:39.694Z,99.99
2019-05-10T08:39:45.174Z,99.99
2019-05-10T08:40:38.147Z,99.99
2019-05-10T08:41:37.024Z,99.99
2019-05-10T08:42:45.469Z,99.99
2019-05-10T08:43:38.839Z,99.99
2019-05-10T08:44:36.956Z,99.99
2019-05-10T08:45:38.826Z,99.99
2019-05-10T08:46:41.253Z,99.99
2019-05-10T08:47:36.884Z,99.99
2019-05-10T08:48:38.186Z,99.99
2019-05-10T08:49:52.083Z,99.99
2019-05-10T08:50:49.522Z,99.99
2019-05-10T08:51:43.846Z,99.99
2019-05-10T08:52:36.772Z,99.99
2019-05-10T08:53:36.749Z,99.99
2019-05-10T08:54:36.725Z,99.99
2019-05-10T08:55:36.701Z,99.99
2019-05-10T08:56:36.679Z,99.99
2019-05-10T08:57:43.285Z,99.99
2019-05-10T08:58:37.396Z,99.99
2019-05-10T08:59:36.609Z,99.99
2019-05-10T09:00:49.305Z,99.99
2019-05-10T09:01:44.273Z,99.99
2019-05-10T09:02:36.543Z,99.99
2019-05-10T09:03:36.520Z,99.99
2019-05-10T09:04:42.737Z,99.99
2019-05-10T09:05:39.756Z,99.99
2019-05-10T09:06:36.454Z,99.99
2019-05-10T09:07:38.992Z,99.99
2019-05-10T09:08:36.409Z,99.99
2019-05-10T09:09:45.609Z,99.99
2019-05-10T09:10:36.365Z,99.99
2019-05-10T09:11:36.342Z,99.99
2019-05-10T09:12:41.811Z,99.99
2019-05-10T09:13:40.846Z,99.99
2019-05-10T09:14:36.277Z,99.99
2019-05-10T09:15:43.227Z,98.68
2019-05-10T09:16:43.376Z,97.04
2019-05-10T09:17:36.213Z,93.63
2019-05-10T09:18:38.090Z,93.43
2019-05-10T09:19:40.779Z,87.99
2019-05-10T09:20:36.150Z,85.50
2019-05-10T09:21:41.280Z,90.41
2019-05-10T09:22:38.624Z,92.58
2019-05-10T09:23:36.094Z,95.98
2019-05-10T09:24:43.172Z,95.51
2019-05-10T09:25:36.050Z,97.09
2019-05-10T09:26:36.031Z,99.99
2019-05-10T09:27:36.009Z,98.67
2019-05-10T09:28:35.990Z,99.15
2019-05-10T09:29:37.505Z,95.89
2019-05-10T09:30:35.951Z,95.26
2019-05-10T09:31:39.429Z,94.21
2019-05-10T09:32:35.907Z,96.80
2019-05-10T09:33:40.983Z,92.10
2019-05-10T09:34:35.866Z,93.25
2019-05-10T09:35:39.042Z,96.70
2019-05-10T09:36:36.346Z,92.82
2019-05-10T09:37:35.806Z,96.51
2019-05-10T09:38:39.619Z,97.33
2019-05-10T09:39:35.767Z,99.99
2019-05-10T09:40:42.507Z,99.99
2019-05-10T09:41:38.202Z,99.99
2019-05-10T09:42:39.939Z,99.99
2019-05-10T09:43:42.451Z,99.99
2019-05-10T09:44:35.660Z,99.99
2019-05-10T09:45:35.641Z,99.99
2019-05-10T09:46:35.623Z,99.99
2019-05-10T09:47:35.597Z,99.99
2019-05-10T09:48:35.575Z,99.99
2019-05-10T09:49:35.554Z,99.99
2019-05-10T09:50:44.333Z,99.99
2019-05-10T09:51:35.511Z,99.99
2019-05-10T09:52:35.491Z,97.71
2019-05-10T09:53:38.042Z,95.17
2019-05-10T09:54:35.447Z,91.28
2019-05-10T09:55:36.944Z,86.81
2019-05-10T09:56:39.493Z,88.54
2019-05-10T09:57:37.822Z,87.05
2019-05-10T09:58:38.453Z,88.20
2019-05-10T09:59:36.875Z,86.43
2019-05-10T10:00:37.913Z,86.87
2019-05-10T10:01:37.121Z,90.75
2019-05-10T10:02:37.237Z,91.24
2019-05-10T10:03:42.367Z,91.67
2019-05-10T10:04:37.202Z,91.57
2019-05-10T10:05:39.696Z,91.42
2019-05-10T10:06:36.951Z,91.14
2019-05-10T10:07:37.225Z,89.22
2019-05-10T10:08:35.157Z,91.52
2019-05-10T10:09:42.366Z,91.38
2019-05-10T10:10:37.178Z,92.05
2019-05-10T10:11:35.096Z,94.45
2019-05-10T10:12:37.261Z,95.60
2019-05-10T10:13:40.813Z,95.60
2019-05-10T10:14:39.282Z,93.01
2019-05-10T10:15:37.033Z,90.31
2019-05-10T10:16:34.995Z,83.67
2019-05-10T10:17:40.248Z,80.48
2019-05-10T10:18:37.203Z,76.71
2019-05-10T10:19:37.620Z,75.20
2019-05-10T10:20:36.102Z,71.34
2019-05-10T10:21:38.581Z,71.19
2019-05-10T10:22:34.887Z,70.28
2019-05-10T10:23:37.659Z,70.44
2019-05-10T10:24:37.891Z,72.21
2019-05-10T10:25:35.428Z,69.58
2019-05-10T10:26:34.803Z,65.43
2019-05-10T10:27:36.988Z,62.02
2019-05-10T10:28:37.336Z,58.61
2019-05-10T10:29:36.556Z,60.06
2019-05-10T10:30:37.085Z,61.22
2019-05-10T10:31:50.083Z,61.86
2019-05-10T10:32:35.048Z,60.71
2019-05-10T10:33:34.677Z,64.50
2019-05-10T10:34:38.749Z,66.20
2019-05-10T10:35:34.646Z,67.35
2019-05-10T10:36:40.399Z,70.65
2019-05-10T10:37:34.611Z,71.52
2019-05-10T10:38:37.050Z,71.77
2019-05-10T10:39:37.062Z,72.02
2019-05-10T10:40:35.433Z,72.41
2019-05-10T10:41:34.539Z,72.95
2019-05-10T10:42:34.522Z,74.16
2019-05-10T10:43:36.969Z,75.85
2019-05-10T10:44:36.932Z,76.77
2019-05-10T10:45:34.467Z,77.82
2019-05-10T10:46:34.825Z,78.20
2019-05-10T10:47:34.427Z,79.70
2019-05-10T10:48:36.838Z,81.52
2019-05-10T10:49:34.390Z,82.67
2019-05-10T10:50:34.369Z,83.44
2019-05-10T10:51:34.559Z,84.20
2019-05-10T10:52:34.327Z,84.78
2019-05-10T10:53:34.306Z,84.39
2019-05-10T10:54:37.575Z,85.88
2019-05-10T10:55:37.170Z,84.15
2019-05-10T10:56:34.245Z,83.58
2019-05-10T10:57:34.224Z,84.28
2019-05-10T10:58:34.206Z,82.21
2019-05-10T10:59:34.184Z,80.30
2019-05-10T11:00:34.161Z,78.57
2019-05-10T11:01:47.213Z,78.57
2019-05-10T11:02:34.371Z,78.99
2019-05-10T11:03:34.098Z,78.03
2019-05-10T11:04:34.077Z,78.55
2019-05-10T11:05:34.060Z,75.67
2019-05-10T11:06:34.037Z,74.90
2019-05-10T11:07:38.124Z,73.85
2019-05-10T11:08:33.994Z,75.10
2019-05-10T11:09:33.976Z,74.71
2019-05-10T11:10:33.956Z,75.20
2019-05-10T11:11:38.724Z,74.62
2019-05-10T11:12:33.913Z,74.58
2019-05-10T11:13:45.439Z,75.54
2019-05-10T11:14:39.983Z,78.80
2019-05-10T11:15:36.193Z,77.56
2019-05-10T11:16:33.839Z,76.59
2019-05-10T11:17:33.812Z,78.32
2019-05-10T11:18:33.792Z,77.84
2019-05-10T11:19:33.775Z,78.47
2019-05-10T11:20:33.758Z,79.34
2019-05-10T11:21:33.731Z,79.88
2019-05-10T11:22:33.709Z,81.60
2019-05-10T11:23:38.677Z,82.18
2019-05-10T11:24:33.669Z,83.04
2019-05-10T11:25:33.649Z,82.71
2019-05-10T11:26:36.705Z,85.88
2019-05-10T11:27:33.606Z,95.12
2019-05-10T11:28:38.642Z,99.99
2019-05-10T11:29:33.565Z,99.99
2019-05-10T11:30:33.544Z,99.99
2019-05-10T11:31:33.523Z,99.99
2019-05-10T11:32:33.502Z,99.99
2019-05-10T11:33:33.908Z,99.99
2019-05-10T11:34:37.416Z,99.99
2019-05-10T11:35:34.714Z,99.99
2019-05-10T11:36:33.413Z,99.99
2019-05-10T11:37:36.430Z,99.99
2019-05-10T11:38:33.369Z,99.99
2019-05-10T11:39:42.148Z,99.99
2019-05-10T11:40:35.192Z,99.99
2019-05-10T11:41:33.301Z,99.99
2019-05-10T11:42:37.582Z,99.99
2019-05-10T11:43:33.259Z,99.99
2019-05-10T11:44:33.237Z,99.99
2019-05-10T11:45:35.238Z,99.99
2019-05-10T11:46:33.194Z,99.99
2019-05-10T11:47:33.171Z,99.99
2019-05-10T11:48:36.986Z,99.99
2019-05-10T11:49:33.130Z,99.99
2019-05-10T11:50:35.457Z,99.99
2019-05-10T11:51:33.097Z,97.91
2019-05-10T11:53:33.044Z,91.81
2019-05-10T11:54:33.024Z,91.47
2019-05-10T11:55:35.756Z,97.38
2019-05-10T11:56:32.981Z,99.99
2019-05-10T11:57:33.165Z,97.04
2019-05-10T11:58:37.454Z,94.21
2019-05-10T11:59:38.265Z,98.52
2019-05-10T12:00:34.312Z,96.27
2019-05-10T12:01:32.878Z,99.99
2019-05-10T12:02:38.318Z,99.99
2019-05-10T12:03:32.831Z,99.99
2019-05-10T12:04:38.852Z,99.99
2019-05-10T12:05:32.790Z,99.99
2019-05-10T12:06:32.768Z,99.99
2019-05-10T12:07:42.461Z,99.99
2019-05-10T12:08:32.755Z,99.99
2019-05-10T12:09:32.700Z,99.99
2019-05-10T12:10:32.678Z,99.99
2019-05-10T12:11:34.117Z,99.99
2019-05-10T12:12:50.703Z,99.99
2019-05-10T12:13:32.826Z,99.99
2019-05-10T12:14:32.584Z,99.99
2019-05-10T12:15:32.560Z,99.99
2019-05-10T12:16:33.603Z,99.99
2019-05-10T12:17:32.514Z,99.99
2019-05-10T12:18:36.300Z,99.99
2019-05-10T12:19:36.923Z,99.99
2019-05-10T12:21:33.383Z,99.99
2019-05-10T12:22:38.042Z,99.99
2019-05-10T12:23:32.366Z,99.99
2019-05-10T12:24:46.829Z,99.99
2019-05-10T12:25:46.346Z,99.99
2019-05-10T12:26:19.633Z,91.42
2019-05-10T12:26:27.086Z,99.99
2019-05-10T12:27:44.390Z,99.99
2019-05-10T12:28:35.529Z,99.99
2019-05-10T12:29:32.221Z,99.99
2019-05-10T12:30:35.082Z,99.99
2019-05-10T12:31:32.179Z,99.99
2019-05-10T12:32:36.831Z,99.99
2019-05-10T12:33:32.123Z,99.99
2019-05-10T12:34:32.098Z,99.99
2019-05-10T12:35:39.303Z,99.99
2019-05-10T12:36:32.048Z,99.99
2019-05-10T12:37:32.027Z,99.99
2019-05-10T12:38:35.695Z,99.99
2019-05-10T12:39:31.983Z,99.99
2019-05-10T12:40:31.954Z,99.99
2019-05-10T12:41:31.931Z,99.99
2019-05-10T12:42:31.909Z,99.99
2019-05-10T12:43:31.881Z,99.99
2019-05-10T12:44:33.551Z,99.99
2019-05-10T12:45:31.835Z,99.99
2019-05-10T12:46:31.812Z,99.99
2019-05-10T12:47:33.784Z,99.99
2019-05-10T12:48:35.429Z,99.99
2019-05-10T12:49:31.742Z,99.99
2019-05-10T12:50:31.720Z,99.99
2019-05-10T12:51:31.698Z,99.99
2019-05-10T12:52:32.113Z,99.99
2019-05-10T12:53:31.678Z,99.99